Time;durP1;ratioP1;P1;durP2;ratioP2;P2;SDS_P1;SDS_P2;PMS_P1;PMS_P2;Temp;Humidity;BMP_temperature;BMP_pressure;BME280_temperature;BME280_humidity;BME280_pressure;Samples;Min_cycle;Max_cycle;Signal;HPM_P1;HPM_P2
2023/01/16 00:02:09;;;;;;;5.72;2.58;;;4.70;99.90;;;;;;4989328;28;20108;-63
2023/01/16 00:04:35;;;;;;;7.28;2.80;;;4.70;99.90;;;;;;4990148;28;20051;-63
2023/01/16 00:07:00;;;;;;;5.80;3.03;;;4.70;99.90;;;;;;4971173;28;20046;-63
2023/01/16 00:09:26;;;;;;;8.55;3.10;;;4.70;99.90;;;;;;4974673;28;20066;-63
2023/01/16 00:11:52;;;;;;;8.10;3.25;;;4.70;99.90;;;;;;4990216;28;20053;-63
2023/01/16 00:14:18;;;;;;;9.88;3.05;;;4.60;99.90;;;;;;4990326;28;20034;-63
2023/01/16 00:16:44;;;;;;;5.22;3.40;;;4.70;99.90;;;;;;4989702;28;20058;-63
2023/01/16 00:19:10;;;;;;;6.80;3.40;;;4.70;99.90;;;;;;4990209;28;20417;-63
2023/01/16 00:21:35;;;;;;;3.05;2.67;;;4.60;99.90;;;;;;4989816;28;20034;-63
2023/01/16 00:24:02;;;;;;;6.43;2.80;;;4.70;99.90;;;;;;4990165;28;20427;-63
2023/01/16 00:26:28;;;;;;;6.88;2.63;;;4.70;99.90;;;;;;4990563;28;20042;-63
2023/01/16 00:28:54;;;;;;;5.57;3.20;;;4.60;99.90;;;;;;4989689;28;20049;-63
2023/01/16 00:31:23;;;;;;;10.05;2.97;;;4.60;99.90;;;;;;4988832;28;20615;-63
2023/01/16 00:33:49;;;;;;;7.65;3.20;;;4.70;99.90;;;;;;4989413;28;20061;-63
2023/01/16 00:36:14;;;;;;;6.43;2.90;;;4.60;99.90;;;;;;4989748;28;20042;-63
2023/01/16 00:38:40;;;;;;;4.80;2.80;;;4.70;99.90;;;;;;4989698;28;20121;-63
2023/01/16 00:41:06;;;;;;;6.60;3.00;;;4.70;99.90;;;;;;4989664;28;20173;-63
2023/01/16 00:43:33;;;;;;;11.00;3.45;;;4.70;99.90;;;;;;4990134;28;20649;-63
2023/01/16 00:45:59;;;;;;;6.43;3.60;;;4.70;99.90;;;;;;4989519;28;20487;-63
2023/01/16 00:48:25;;;;;;;11.13;5.30;;;4.70;99.90;;;;;;4990134;28;20046;-63
2023/01/16 00:50:51;;;;;;;9.80;5.40;;;4.70;99.90;;;;;;4967794;28;20522;-63
2023/01/16 00:53:16;;;;;;;12.23;4.03;;;4.70;99.90;;;;;;4985758;28;20501;-63
2023/01/16 00:55:42;;;;;;;9.95;3.15;;;4.60;99.90;;;;;;4989499;28;20038;-63
2023/01/16 00:58:09;;;;;;;8.13;2.70;;;4.70;99.90;;;;;;4989562;28;20038;-63
2023/01/16 01:00:35;;;;;;;9.82;2.63;;;4.60;99.90;;;;;;4990046;28;20130;-63
2023/01/16 01:03:02;;;;;;;11.60;2.40;;;4.60;99.90;;;;;;4969634;28;20038;-63
2023/01/16 01:05:28;;;;;;;8.05;2.15;;;4.60;99.90;;;;;;4989408;28;20042;-63
2023/01/16 01:07:53;;;;;;;9.98;2.38;;;4.50;99.90;;;;;;4989112;28;20039;-63
2023/01/16 01:10:19;;;;;;;8.68;2.63;;;4.50;99.90;;;;;;4971945;28;20473;-63
2023/01/16 01:12:45;;;;;;;3.63;1.50;;;4.40;99.90;;;;;;4988646;28;20042;-63
2023/01/16 01:15:11;;;;;;;12.07;1.80;;;4.50;99.90;;;;;;4988681;28;20560;-63
2023/01/16 01:17:37;;;;;;;5.72;2.15;;;4.50;99.90;;;;;;4988408;28;20042;-63
2023/01/16 01:20:03;;;;;;;5.65;1.80;;;4.40;99.90;;;;;;4988340;28;20108;-63
2023/01/16 01:22:29;;;;;;;4.07;1.52;;;4.40;99.90;;;;;;4972181;28;20129;-63
2023/01/16 01:24:55;;;;;;;11.63;2.00;;;4.30;99.90;;;;;;4988684;28;20133;-63
2023/01/16 01:27:20;;;;;;;2.75;1.92;;;4.20;99.90;;;;;;4989340;28;20053;-63
2023/01/16 01:29:47;;;;;;;9.30;1.80;;;4.10;99.90;;;;;;4970640;28;20076;-63
2023/01/16 01:32:13;;;;;;;8.75;1.85;;;4.00;99.90;;;;;;4988777;28;20046;-63
2023/01/16 01:34:39;;;;;;;8.77;1.90;;;4.00;99.90;;;;;;4955630;28;20377;-63
2023/01/16 01:37:06;;;;;;;5.82;1.65;;;3.90;99.90;;;;;;4988174;28;20492;-63
2023/01/16 01:39:33;;;;;;;8.52;2.00;;;3.80;99.90;;;;;;4971782;28;20050;-63
2023/01/16 01:45:02;;;;;;;8.15;1.85;;;3.90;99.90;;;;;;4989193;28;20054;-63
2023/01/16 01:47:36;;;;;;;7.53;1.95;;;3.90;99.90;;;;;;4971046;28;20139;-63
2023/01/16 01:50:10;;;;;;;5.85;1.60;;;3.90;99.90;;;;;;4988429;28;20414;-63
2023/01/16 01:52:37;;;;;;;7.55;1.67;;;3.90;99.90;;;;;;4970322;28;20316;-63
2023/01/16 01:55:07;;;;;;;8.65;1.95;;;3.90;99.90;;;;;;4987650;28;20516;-63
2023/01/16 01:57:46;;;;;;;8.00;1.88;;;3.90;99.90;;;;;;4988551;28;20042;-63
2023/01/16 02:00:18;;;;;;;5.28;1.80;;;3.90;99.90;;;;;;4970733;28;20050;-63
2023/01/16 02:02:55;;;;;;;7.43;2.10;;;3.90;99.90;;;;;;4983341;28;20046;-63
2023/01/16 02:05:32;;;;;;;7.50;1.77;;;3.90;99.90;;;;;;4988427;28;20113;-63
2023/01/16 02:08:00;;;;;;;9.65;1.77;;;3.90;99.90;;;;;;4970462;28;20110;-63
2023/01/16 02:10:48;;;;;;;6.60;1.58;;;4.00;99.90;;;;;;4988215;28;20050;-63
2023/01/16 02:13:15;;;;;;;3.53;1.52;;;3.90;99.90;;;;;;4986911;28;20090;-63
2023/01/16 02:19:14;;;;;;;10.00;1.60;;;4.00;99.90;;;;;;4987693;28;20057;-63
2023/01/16 02:21:47;;;;;;;7.78;1.75;;;4.00;99.90;;;;;;4966421;28;20497;-63
2023/01/16 02:24:22;;;;;;;12.20;1.42;;;4.00;99.90;;;;;;4987526;28;20374;-63
2023/01/16 02:26:50;;;;;;;8.65;1.33;;;4.00;99.90;;;;;;4988061;28;20058;-63
2023/01/16 02:29:39;;;;;;;6.63;1.75;;;4.00;99.90;;;;;;4987420;28;20050;-63
2023/01/16 02:32:43;;;;;;;14.40;2.20;;;3.90;99.90;;;;;;4987564;28;20534;-63
2023/01/16 02:35:15;;;;;;;8.85;1.70;;;4.00;99.90;;;;;;4987475;28;20390;-63
2023/01/16 02:37:50;;;;;;;9.65;1.60;;;4.00;99.90;;;;;;4987547;28;20054;-63
2023/01/16 02:40:26;;;;;;;5.65;1.60;;;3.90;99.90;;;;;;4947840;28;20387;-63
2023/01/16 02:43:00;;;;;;;9.82;2.20;;;4.00;99.90;;;;;;4981643;28;20046;-63
2023/01/16 02:45:57;;;;;;;9.02;1.52;;;4.00;99.90;;;;;;4988274;28;20050;-63
2023/01/16 02:48:45;;;;;;;6.05;1.40;;;4.00;99.90;;;;;;4986900;28;20042;-63
2023/01/16 02:51:32;;;;;;;7.80;1.85;;;4.10;99.90;;;;;;4987352;28;20134;-63
2023/01/16 02:54:11;;;;;;;9.23;2.00;;;4.10;99.90;;;;;;4969436;28;20150;-63
2023/01/16 02:57:04;;;;;;;8.68;1.88;;;4.00;99.90;;;;;;4984440;28;20090;-63
2023/01/16 02:59:30;;;;;;;5.53;1.40;;;4.00;99.90;;;;;;4967291;28;20363;-62
2023/01/16 03:01:57;;;;;;;17.13;2.80;;;4.00;99.90;;;;;;4971199;28;20513;-63
2023/01/16 03:04:44;;;;;;;11.30;2.08;;;4.10;99.90;;;;;;4976238;28;20045;-63
2023/01/16 03:07:34;;;;;;;6.75;1.52;;;4.10;99.90;;;;;;4969111;28;20464;-63
2023/01/16 03:10:25;;;;;;;;;;;4.10;99.90;;;;;;4984944;28;20051;-63
2023/01/16 03:13:09;;;;;;;5.20;1.30;;;4.10;99.90;;;;;;4987189;28;19929;-63
2023/01/16 03:16:02;;;;;;;7.00;1.50;;;4.10;99.90;;;;;;4987223;28;20050;-63
2023/01/16 03:18:56;;;;;;;8.27;1.67;;;4.20;99.90;;;;;;4987419;28;20133;-63
2023/01/16 03:21:39;;;;;;;6.20;1.45;;;4.10;99.90;;;;;;4986436;28;20081;-63
2023/01/16 03:24:12;;;;;;;5.68;1.58;;;4.20;99.90;;;;;;4987576;28;20089;-63
2023/01/16 03:26:53;;;;;;;9.13;1.70;;;4.10;99.90;;;;;;4987314;28;20046;-63
2023/01/16 03:29:38;;;;;;;3.88;1.38;;;4.10;99.90;;;;;;4987116;28;20046;-63
2023/01/16 03:32:10;;;;;;;6.45;1.40;;;4.10;99.90;;;;;;4985457;28;20081;-63
2023/01/16 03:34:45;;;;;;;10.85;1.77;;;4.10;99.90;;;;;;4988081;28;20433;-63
2023/01/16 03:37:20;;;;;;;12.57;1.40;;;4.10;99.90;;;;;;4991245;28;20109;-63
2023/01/16 03:39:52;;;;;;;10.48;1.45;;;4.10;99.90;;;;;;4973491;28;20434;-63
2023/01/16 03:42:42;;;;;;;12.88;1.60;;;4.10;99.90;;;;;;4990618;28;20129;-63
2023/01/16 03:45:23;;;;;;;8.15;1.80;;;4.00;99.90;;;;;;4990605;28;20082;-63
2023/01/16 03:48:10;;;;;;;8.18;1.63;;;4.00;99.90;;;;;;4973319;28;20054;-63
2023/01/16 03:50:38;;;;;;;10.32;2.15;;;4.00;99.90;;;;;;4991135;28;20061;-63
2023/01/16 03:53:10;;;;;;;5.78;1.33;;;3.90;99.90;;;;;;4990694;28;20057;-63
2023/01/16 03:55:43;;;;;;;9.23;1.73;;;3.90;99.90;;;;;;4990588;28;20058;-63
2023/01/16 03:58:25;;;;;;;8.70;1.67;;;3.80;99.90;;;;;;4990819;28;20061;-63
2023/01/16 04:01:09;;;;;;;8.27;1.70;;;3.80;99.90;;;;;;4973371;28;20058;-63
2023/01/16 04:03:44;;;;;;;8.98;1.70;;;3.70;99.90;;;;;;4986747;28;20050;-63
2023/01/16 04:06:27;;;;;;;16.42;1.75;;;3.60;99.90;;;;;;4990199;28;20137;-63
2023/01/16 04:08:56;;;;;;;14.75;1.70;;;3.60;99.90;;;;;;4972856;28;20049;-63
2023/01/16 04:11:25;;;;;;;9.05;1.75;;;3.60;99.90;;;;;;4990236;28;20108;-63
2023/01/16 04:13:55;;;;;;;8.15;1.50;;;3.60;99.90;;;;;;4990477;28;20061;-63
2023/01/16 04:16:22;;;;;;;7.25;1.90;;;3.60;99.90;;;;;;4989538;28;20055;-63
2023/01/16 04:18:49;;;;;;;12.48;1.50;;;3.60;99.90;;;;;;4990112;28;20097;-63
2023/01/16 04:21:16;;;;;;;9.88;1.60;;;3.60;99.90;;;;;;4989987;28;20072;-63
2023/01/16 04:23:42;;;;;;;2.90;1.20;;;3.60;99.90;;;;;;4969752;28;20114;-63
2023/01/16 04:26:08;;;;;;;12.60;1.75;;;3.70;99.90;;;;;;4969103;28;20493;-63
2023/01/16 04:28:34;;;;;;;8.32;1.52;;;3.70;99.90;;;;;;4990269;28;20046;-63
2023/01/16 04:31:00;;;;;;;7.85;1.55;;;3.80;99.90;;;;;;4989786;28;20093;-63
2023/01/16 04:33:25;;;;;;;8.38;1.42;;;3.80;99.90;;;;;;4989581;28;20038;-63
2023/01/16 04:35:51;;;;;;;11.40;1.48;;;3.80;99.90;;;;;;4990351;28;20225;-63
2023/01/16 04:38:17;;;;;;;4.55;1.75;;;3.90;99.90;;;;;;4989474;28;20085;-63
2023/01/16 04:40:43;;;;;;;5.03;1.50;;;3.90;99.90;;;;;;4990115;28;20078;-64
2023/01/16 04:43:09;;;;;;;14.68;1.83;;;3.90;99.90;;;;;;4989155;28;20038;-63
2023/01/16 04:45:34;;;;;;;7.30;1.42;;;3.90;99.90;;;;;;4972163;28;20042;-63
2023/01/16 04:48:00;;;;;;;7.13;1.75;;;3.90;99.90;;;;;;4989468;28;20611;-63
2023/01/16 04:50:26;;;;;;;9.45;1.40;;;3.90;99.90;;;;;;4989586;28;20093;-63
2023/01/16 04:52:51;;;;;;;4.93;1.60;;;3.90;99.90;;;;;;4989812;28;20038;-63
2023/01/16 04:55:17;;;;;;;12.15;1.92;;;3.90;99.90;;;;;;4988976;28;20053;-63
2023/01/16 04:57:43;;;;;;;8.32;1.63;;;3.90;99.90;;;;;;4989523;28;20133;-63
2023/01/16 05:00:11;;;;;;;10.90;1.95;;;3.90;99.90;;;;;;4989431;28;20129;-63
2023/01/16 05:02:37;;;;;;;5.93;1.35;;;3.90;99.90;;;;;;4971038;28;20046;-63
2023/01/16 05:05:03;;;;;;;9.55;1.98;;;3.90;99.90;;;;;;4989384;28;20049;-63
2023/01/16 05:07:28;;;;;;;4.57;1.33;;;3.90;99.90;;;;;;4989373;28;20132;-63
2023/01/16 05:09:54;;;;;;;14.55;1.98;;;3.90;99.90;;;;;;4989243;28;20073;-63
2023/01/16 05:12:20;;;;;;;9.98;2.40;;;4.00;99.90;;;;;;4971239;28;20046;-63
2023/01/16 05:14:46;;;;;;;7.03;2.00;;;4.00;99.90;;;;;;4968473;28;20390;-63
2023/01/16 05:17:12;;;;;;;7.75;2.33;;;4.00;99.90;;;;;;4982065;28;20065;-63
2023/01/16 05:19:38;;;;;;;9.80;2.22;;;4.00;99.90;;;;;;4988704;28;20058;-63
2023/01/16 05:22:04;;;;;;;4.63;2.30;;;4.00;99.90;;;;;;4989356;28;20076;-63
2023/01/16 05:24:30;;;;;;;5.72;1.85;;;4.00;99.90;;;;;;4988764;28;20061;-63
2023/01/16 05:26:56;;;;;;;9.90;2.45;;;4.00;99.90;;;;;;4989315;28;20436;-63
2023/01/16 05:29:22;;;;;;;11.45;2.60;;;4.10;99.90;;;;;;4988722;28;20038;-63
2023/01/16 05:31:47;;;;;;;13.25;3.42;;;4.10;99.90;;;;;;4986963;28;20047;-63
2023/01/16 05:34:13;;;;;;;5.95;2.50;;;4.10;99.90;;;;;;4989147;28;20094;-63
2023/01/16 05:36:39;;;;;;;6.63;2.67;;;4.10;99.90;;;;;;4987636;28;20496;-63
2023/01/16 05:39:05;;;;;;;6.65;2.72;;;4.10;99.90;;;;;;4988275;28;20393;-63
2023/01/16 05:41:30;;;;;;;4.82;2.15;;;4.10;99.90;;;;;;4971129;28;20050;-63
2023/01/16 05:43:56;;;;;;;6.60;2.80;;;4.10;99.90;;;;;;4989120;28;20516;-63
2023/01/16 05:46:24;;;;;;;8.35;3.17;;;4.10;99.90;;;;;;4988470;28;20384;-63
2023/01/16 05:48:50;;;;;;;12.98;3.33;;;4.10;99.90;;;;;;4988454;28;20065;-63
2023/01/16 05:51:19;;;;;;;8.82;3.30;;;4.20;99.90;;;;;;4971261;28;20130;-63
2023/01/16 05:53:49;;;;;;;4.80;2.90;;;4.20;99.90;;;;;;4988193;28;20122;-63
2023/01/16 05:56:17;;;;;;;9.90;2.88;;;4.20;99.90;;;;;;4988540;28;20523;-63
2023/01/16 05:58:43;;;;;;;6.47;3.20;;;4.20;99.90;;;;;;4987481;28;20101;-63
2023/01/16 06:01:09;;;;;;;6.15;3.08;;;4.20;99.90;;;;;;4988595;28;20042;-63
2023/01/16 06:03:34;;;;;;;9.43;3.22;;;4.20;99.90;;;;;;4954156;28;20503;-63
2023/01/16 06:06:00;;;;;;;9.00;3.72;;;4.20;99.90;;;;;;4988173;28;20035;-63
2023/01/16 06:08:26;;;;;;;10.45;3.50;;;4.20;99.90;;;;;;4988114;28;20093;-63
2023/01/16 06:10:52;;;;;;;7.07;3.83;;;4.20;99.90;;;;;;4988574;28;20058;-63
2023/01/16 06:13:17;;;;;;;7.65;3.13;;;4.20;99.90;;;;;;4988275;28;20068;-63
2023/01/16 06:15:43;;;;;;;13.07;3.70;;;4.20;99.90;;;;;;4969752;28;20066;-63
2023/01/16 06:18:09;;;;;;;6.57;3.78;;;4.20;99.90;;;;;;4988302;28;20073;-63
2023/01/16 06:20:34;;;;;;;8.23;3.45;;;4.10;99.90;;;;;;4987553;28;20078;-63
2023/01/16 06:23:00;;;;;;;12.52;3.83;;;4.10;99.90;;;;;;4987894;28;20141;-63
2023/01/16 06:25:26;;;;;;;11.90;2.85;;;4.10;99.90;;;;;;4988427;28;20046;-63
2023/01/16 06:27:52;;;;;;;9.55;2.95;;;4.00;99.90;;;;;;4970060;28;20058;-63
2023/01/16 06:30:18;;;;;;;7.88;2.58;;;3.90;99.90;;;;;;4988284;28;20097;-63
2023/01/16 06:32:49;;;;;;;6.50;3.42;;;3.80;99.90;;;;;;4987357;28;20058;-63
2023/01/16 06:35:14;;;;;;;17.63;4.03;;;3.80;99.90;;;;;;4987915;28;20081;-63
2023/01/16 06:37:40;;;;;;;9.07;3.55;;;3.70;99.90;;;;;;4987314;28;20082;-63
2023/01/16 06:40:07;;;;;;;9.35;3.97;;;3.70;99.90;;;;;;4986349;28;20547;-63
2023/01/16 06:42:33;;;;;;;6.88;4.25;;;3.70;99.90;;;;;;4965928;28;20069;-63
2023/01/16 06:44:58;;;;;;;9.50;4.63;;;3.80;99.90;;;;;;4967285;28;20043;-63
2023/01/16 06:47:24;;;;;;;12.38;5.78;;;3.80;99.90;;;;;;4987931;28;20058;-63
2023/01/16 06:49:50;;;;;;;9.02;5.47;;;3.80;99.90;;;;;;4987031;28;20165;-63
2023/01/16 06:52:16;;;;;;;11.07;6.80;;;3.90;99.90;;;;;;4987531;28;20548;-63
2023/01/16 06:54:41;;;;;;;13.60;7.68;;;3.90;99.90;;;;;;4987637;28;20128;-63
2023/01/16 06:57:07;;;;;;;14.95;7.35;;;3.90;99.90;;;;;;4969948;28;20512;-63
2023/01/16 06:59:34;;;;;;;21.67;7.80;;;3.90;99.90;;;;;;4987297;28;20089;-63
2023/01/16 07:01:59;;;;;;;12.00;7.15;;;3.80;99.90;;;;;;4987287;28;20034;-62
2023/01/16 07:04:25;;;;;;;14.40;8.15;;;3.80;99.90;;;;;;4979718;28;20540;-63
2023/01/16 07:06:52;;;;;;;17.95;7.10;;;3.80;99.90;;;;;;4979047;28;20050;-63
2023/01/16 07:09:18;;;;;;;19.08;7.07;;;3.80;99.90;;;;;;4977550;28;20129;-63
2023/01/16 07:11:43;;;;;;;14.57;7.78;;;3.70;99.90;;;;;;4976712;28;20607;-63
2023/01/16 07:22:38;;;;;;;19.50;6.57;;;3.70;99.90;;;;;;4987475;28;20050;-63
2023/01/16 07:25:08;;;;;;;13.90;6.30;;;3.70;99.90;;;;;;4987197;28;20050;-63
2023/01/16 07:27:33;;;;;;;10.95;5.60;;;3.60;99.90;;;;;;4981603;28;20042;-63
2023/01/16 07:29:59;;;;;;;11.50;5.53;;;3.60;99.90;;;;;;4986385;28;20046;-63
2023/01/16 07:32:25;;;;;;;11.70;6.38;;;3.50;99.90;;;;;;4976502;28;20046;-63
2023/01/16 07:34:51;;;;;;;18.08;6.78;;;3.50;99.90;;;;;;4987073;28;20093;-62
2023/01/16 07:37:16;;;;;;;13.65;6.53;;;3.50;99.90;;;;;;4986401;28;20527;-63
2023/01/16 07:39:42;;;;;;;17.80;6.88;;;3.50;99.90;;;;;;4986298;28;20046;-62
2023/01/16 07:42:08;;;;;;;22.48;7.10;;;3.40;99.90;;;;;;4986957;28;20042;-63
2023/01/16 07:44:34;;;;;;;14.05;6.72;;;3.40;99.90;;;;;;4985170;28;20048;-63
2023/01/16 07:47:00;;;;;;;13.55;7.00;;;3.30;99.90;;;;;;4956139;28;20047;-63
2023/01/16 07:49:26;;;;;;;8.43;5.63;;;3.30;99.90;;;;;;4978736;28;20093;-63
2023/01/16 07:51:52;;;;;;;11.25;6.18;;;3.20;99.90;;;;;;4966069;28;20046;-63
2023/01/16 07:54:17;;;;;;;10.88;6.72;;;3.20;99.90;;;;;;4979202;28;20130;-63
2023/01/16 07:56:43;;;;;;;16.08;6.43;;;3.30;99.90;;;;;;4970012;28;20047;-63
2023/01/16 07:59:09;;;;;;;10.07;6.10;;;3.20;99.90;;;;;;4949599;28;20417;-63
2023/01/16 08:01:35;;;;;;;22.38;6.30;;;3.20;99.90;;;;;;4977067;28;20031;-63
2023/01/16 08:04:00;;;;;;;7.60;5.25;;;3.20;99.90;;;;;;4981971;28;20084;-63
2023/01/16 08:06:27;;;;;;;16.77;9.02;;;3.30;99.90;;;;;;4956969;28;20026;-63
2023/01/16 08:08:53;;;;;;;11.05;6.13;;;3.30;99.90;;;;;;4975281;28;20130;-63
2023/01/16 08:11:38;;;;;;;14.80;7.43;;;3.30;99.90;;;;;;4982450;28;20475;-63
2023/01/16 08:14:05;;;;;;;23.25;9.40;;;3.30;99.90;;;;;;4982727;28;20054;-62
2023/01/16 08:16:31;;;;;;;34.58;12.40;;;3.40;99.90;;;;;;4974985;28;20053;-63
2023/01/16 08:18:57;;;;;;;30.40;8.48;;;3.40;99.90;;;;;;4976491;28;20039;-63
2023/01/16 08:21:23;;;;;;;29.60;8.43;;;3.40;99.90;;;;;;4970110;28;20083;-63
2023/01/16 08:23:49;;;;;;;14.18;5.30;;;3.50;99.90;;;;;;4989896;28;20120;-63
2023/01/16 08:26:15;;;;;;;19.92;7.35;;;3.50;99.90;;;;;;4984313;28;20050;-63
2023/01/16 08:28:41;;;;;;;17.02;6.63;;;3.50;99.90;;;;;;4979669;28;20553;-63
2023/01/16 08:31:11;;;;;;;10.90;4.32;;;3.50;99.90;;;;;;4954658;28;20085;-63
2023/01/16 08:33:37;;;;;;;7.13;4.45;;;3.50;99.90;;;;;;4982420;28;20544;-63
2023/01/16 08:36:04;;;;;;;8.65;4.25;;;3.60;99.90;;;;;;4965526;28;20097;-63
2023/01/16 08:38:30;;;;;;;6.93;3.65;;;3.60;99.90;;;;;;4985339;28;20141;-63
2023/01/16 08:40:56;;;;;;;6.82;3.97;;;3.60;99.90;;;;;;4969547;28;20081;-63
2023/01/16 08:51:49;;;;;;;16.67;4.32;;;3.70;99.90;;;;;;4986104;28;20078;-63
2023/01/16 08:54:15;;;;;;;8.90;3.55;;;3.70;99.90;;;;;;4975749;28;20034;-63
2023/01/16 08:56:42;;;;;;;6.90;4.18;;;3.80;99.90;;;;;;4979290;28;20084;-63
2023/01/16 08:59:11;;;;;;;7.78;4.15;;;3.80;99.90;;;;;;4987203;28;20113;-63
2023/01/16 09:01:38;;;;;;;6.13;3.78;;;3.80;99.90;;;;;;4986716;28;20035;-63
2023/01/16 09:04:05;;;;;;;9.70;3.95;;;3.80;99.90;;;;;;4984035;28;20046;-63
2023/01/16 09:06:31;;;;;;;14.50;4.68;;;3.90;99.90;;;;;;4971175;28;20129;-63
2023/01/16 09:08:57;;;;;;;7.78;4.40;;;3.90;99.90;;;;;;4986751;28;20076;-62
2023/01/16 09:14:08;;;;;;;11.93;3.75;;;3.90;99.90;;;;;;4974820;28;20055;-63
2023/01/16 09:16:34;;;;;;;15.68;4.10;;;3.90;99.90;;;;;;4972117;28;20047;-63
2023/01/16 09:18:59;;;;;;;8.23;3.45;;;4.00;99.90;;;;;;4970392;28;20133;-63
2023/01/16 09:21:26;;;;;;;14.57;3.80;;;4.00;99.90;;;;;;4977112;28;20489;-63
2023/01/16 09:23:52;;;;;;;10.63;3.83;;;4.00;99.90;;;;;;4989118;28;20426;-63
2023/01/16 09:26:18;;;;;;;9.73;4.13;;;4.00;99.90;;;;;;4974709;28;20088;-63
2023/01/16 09:28:43;;;;;;;3.60;2.65;;;4.00;99.90;;;;;;4988436;28;20076;-63
2023/01/16 09:31:09;;;;;;;10.93;3.38;;;4.00;99.90;;;;;;4987688;28;20042;-63
2023/01/16 09:33:37;;;;;;;12.13;3.05;;;4.00;99.90;;;;;;4947691;28;20534;-63
2023/01/16 09:36:03;;;;;;;10.02;3.97;;;4.00;99.90;;;;;;4968481;28;20054;-63
2023/01/16 09:38:29;;;;;;;11.48;4.13;;;4.00;99.90;;;;;;4985835;28;20113;-63
2023/01/16 09:40:58;;;;;;;10.70;3.50;;;4.10;99.90;;;;;;4989383;28;20057;-63
2023/01/16 09:43:39;;;;;;;6.35;2.70;;;4.10;99.90;;;;;;4970812;28;20088;-63
2023/01/16 09:46:26;;;;;;;9.05;3.22;;;4.10;99.90;;;;;;4967432;28;20049;-63
2023/01/16 09:49:03;;;;;;;6.18;3.30;;;4.10;99.90;;;;;;4976766;28;20050;-63
2023/01/16 09:51:36;;;;;;;8.85;3.45;;;4.10;99.90;;;;;;4987920;28;20419;-63
2023/01/16 10:00:02;;;;;;;9.43;3.47;;;4.20;99.90;;;;;;4988132;28;20050;-63
2023/01/16 10:02:30;;;;;;;;;;;4.20;99.90;;;;;;4988861;28;20136;-63
2023/01/16 10:04:57;;;;;;;3.58;1.50;;;4.20;99.90;;;;;;4987844;28;20377;-63
2023/01/16 10:07:38;;;;;;;10.52;3.72;;;4.20;99.90;;;;;;4987507;28;20104;-63
2023/01/16 10:10:25;;;;;;;5.57;1.85;;;4.20;99.90;;;;;;4987994;28;20417;-63
2023/01/16 10:13:11;;;;;;;4.45;2.35;;;4.20;99.90;;;;;;4988189;28;20437;-63
2023/01/16 10:15:47;;;;;;;7.18;2.38;;;4.20;99.90;;;;;;4988351;28;20046;-63
2023/01/16 10:18:14;;;;;;;7.20;3.53;;;4.30;99.90;;;;;;4987644;28;20062;-63
2023/01/16 10:20:57;;;;;;;6.03;2.92;;;4.30;99.90;;;;;;4988472;28;20082;-63
2023/01/16 10:23:30;;;;;;;9.60;3.10;;;4.30;99.90;;;;;;4975635;28;20501;-64
2023/01/16 10:26:23;;;;;;;5.47;2.50;;;4.30;99.90;;;;;;4987850;28;20049;-63
2023/01/16 10:29:03;;;;;;;5.35;2.22;;;4.30;99.90;;;;;;4988025;28;20084;-63
2023/01/16 10:31:40;;;;;;;3.87;1.93;;;4.30;99.90;;;;;;4987459;28;20046;-63
2023/01/16 10:34:20;;;;;;;3.53;2.03;;;4.30;99.90;;;;;;4954039;28;20723;-63
2023/01/16 10:36:52;;;;;;;4.23;2.17;;;4.30;99.90;;;;;;4985851;28;20084;-63
2023/01/16 10:39:20;;;;;;;8.65;1.85;;;4.30;99.90;;;;;;4969721;28;20703;-63
2023/01/16 10:50:19;;;;;;;2.25;1.80;;;4.30;99.90;;;;;;4987110;28;19926;-63
2023/01/16 10:52:46;;;;;;;5.10;2.08;;;4.30;99.90;;;;;;4969644;28;20074;-63
2023/01/16 10:55:14;;;;;;;5.43;1.80;;;4.30;99.90;;;;;;4969117;28;20201;-63
2023/01/16 10:57:52;;;;;;;5.70;1.83;;;4.40;99.90;;;;;;4986802;28;20165;-63
2023/01/16 11:00:27;;;;;;;7.30;1.65;;;4.40;99.90;;;;;;4986958;28;20072;-63
2023/01/16 11:03:00;;;;;;;6.25;1.73;;;4.40;99.90;;;;;;4987878;28;20057;-63
2023/01/16 11:05:30;;;;;;;5.72;2.00;;;4.40;99.90;;;;;;4986606;28;20038;-63
2023/01/16 11:08:05;;;;;;;4.55;1.48;;;4.40;99.90;;;;;;4966886;28;20050;-63
2023/01/16 11:10:32;;;;;;;3.05;1.20;;;4.40;99.90;;;;;;4975596;28;20520;-63
2023/01/16 11:18:53;;;;;;;1.30;0.63;;;4.40;99.90;;;;;;4962763;28;20057;-62
2023/01/16 11:21:27;;;;;;;2.25;0.90;;;4.30;99.90;;;;;;4973832;28;20050;-63
2023/01/16 11:24:03;;;;;;;2.35;0.90;;;4.20;99.90;;;;;;4986253;28;20129;-63
2023/01/16 11:26:30;;;;;;;0.65;0.63;;;4.20;99.90;;;;;;4985450;28;20065;-62
2023/01/16 11:28:56;;;;;;;1.45;0.30;;;4.10;99.90;;;;;;4979211;28;20058;-62
2023/01/16 11:31:31;;;;;;;2.28;0.70;;;4.10;99.90;;;;;;4984104;28;20046;-63
2023/01/16 11:34:01;;;;;;;1.60;0.52;;;4.00;99.90;;;;;;4984704;28;20049;-62
2023/01/16 11:36:31;;;;;;;0.75;0.25;;;4.00;99.90;;;;;;4967944;28;20047;-62
2023/01/16 11:38:58;;;;;;;3.28;0.98;;;4.10;99.90;;;;;;4986212;28;20050;-63
2023/01/16 11:41:29;;;;;;;6.45;0.93;;;4.00;99.90;;;;;;4986454;28;20053;-62
2023/01/16 11:47:15;;;;;;;0.35;0.15;;;4.10;99.90;;;;;;4984700;28;20090;-63
2023/01/16 11:49:45;;;;;;;0.85;0.43;;;4.10;99.90;;;;;;4986642;28;20096;-62
2023/01/16 11:52:26;;;;;;;3.97;0.77;;;4.10;99.90;;;;;;4969211;28;20046;-62
2023/01/16 11:54:57;;;;;;;4.47;0.95;;;4.10;99.90;;;;;;4955236;28;20042;-62
2023/01/16 11:57:44;;;;;;;;;;;4.10;99.90;;;;;;4990514;28;20062;-63
2023/01/16 12:00:20;;;;;;;1.77;0.90;;;4.20;99.90;;;;;;4977504;28;19929;-63
2023/01/16 12:02:59;;;;;;;2.60;0.82;;;4.20;99.90;;;;;;4989359;28;20050;-62
2023/01/16 12:05:54;;;;;;;6.25;1.00;;;4.20;99.90;;;;;;4987472;28;20054;-62
2023/01/16 12:08:44;;;;;;;3.85;0.93;;;4.20;99.90;;;;;;4989289;28;20057;-62
2023/01/16 12:11:28;;;;;;;;;;;4.20;99.90;;;;;;4990506;28;20100;-62
2023/01/16 12:16:59;;;;;;;6.00;0.95;;;4.20;99.90;;;;;;4977815;28;20081;-62
2023/01/16 12:19:40;;;;;;;2.65;1.63;;;4.20;99.90;;;;;;4989754;28;20047;-62
2023/01/16 12:22:29;;;;;;;2.53;0.80;;;4.20;99.90;;;;;;4990246;28;20121;-62
2023/01/16 12:25:19;;;;;;;4.10;0.75;;;4.20;99.90;;;;;;4990771;28;20073;-62
2023/01/16 12:28:27;;;;;;;1.40;0.87;;;4.20;99.90;;;;;;4971431;28;20035;-62
2023/01/16 12:34:12;;;;;;;2.60;1.38;;;4.20;99.90;;;;;;4966311;28;20042;-62
2023/01/16 12:36:47;;;;;;;2.72;1.08;;;4.20;99.90;;;;;;4988862;28;20038;-62
2023/01/16 12:39:33;;;;;;;3.28;0.98;;;4.20;99.90;;;;;;4989880;28;20456;-62
2023/01/16 12:45:30;;;;;;;0.47;0.47;;;4.30;99.90;;;;;;4989098;28;20050;-63
2023/01/16 12:48:15;;;;;;;1.27;0.60;;;4.30;99.90;;;;;;4989368;28;20527;-63
2023/01/16 12:51:03;;;;;;;2.47;0.57;;;4.30;99.90;;;;;;4977659;28;20050;-62
2023/01/16 12:54:06;;;;;;;0.57;0.57;;;4.30;99.90;;;;;;4970231;28;20046;-62
2023/01/16 12:56:45;;;;;;;4.97;1.00;;;4.30;99.90;;;;;;4987819;28;20567;-62
2023/01/16 12:59:44;;;;;;;0.73;0.73;;;4.30;99.90;;;;;;4968692;28;20056;-62
2023/01/16 13:02:19;;;;;;;2.30;0.63;;;4.40;99.90;;;;;;4936638;28;20057;-62
2023/01/16 13:05:12;;;;;;;7.82;1.10;;;4.40;99.90;;;;;;4988401;28;20058;-62
2023/01/16 13:08:12;;;;;;;3.60;1.10;;;4.40;99.90;;;;;;4951718;28;20156;-63
2023/01/16 13:13:33;;;;;;;2.30;0.82;;;4.40;99.90;;;;;;4988389;28;20509;-62
2023/01/16 13:16:29;;;;;;;2.95;0.60;;;4.40;99.90;;;;;;4988689;28;20084;-62
2023/01/16 13:19:02;;;;;;;2.25;0.82;;;4.40;99.90;;;;;;4955185;28;20421;-62
2023/01/16 13:21:35;;;;;;;2.05;0.73;;;4.40;99.90;;;;;;4988246;28;20497;-63
2023/01/16 13:24:17;;;;;;;3.50;0.90;;;4.50;99.90;;;;;;4988750;28;20409;-62
2023/01/16 13:26:55;;;;;;;2.60;1.00;;;4.40;99.90;;;;;;4977133;28;20450;-62
2023/01/16 13:29:30;;;;;;;1.27;0.80;;;4.40;99.90;;;;;;4970997;28;20496;-62
2023/01/16 13:32:05;;;;;;;0.80;0.75;;;4.40;99.90;;;;;;4988618;28;20057;-62
2023/01/16 13:34:47;;;;;;;7.32;1.20;;;4.40;99.90;;;;;;4988736;28;20054;-63
2023/01/16 13:37:36;;;;;;;3.67;0.98;;;4.40;99.90;;;;;;4986860;28;20064;-63
2023/01/16 13:40:06;;;;;;;4.07;1.10;;;4.40;99.90;;;;;;4988405;28;20537;-62
2023/01/16 13:42:34;;;;;;;0.82;0.82;;;4.40;99.90;;;;;;4988225;28;20046;-62
2023/01/16 13:47:51;;;;;;;3.42;1.13;;;4.50;99.90;;;;;;4987996;28;20050;-62
2023/01/16 13:50:38;;;;;;;3.53;0.82;;;4.50;99.90;;;;;;4988242;28;20466;-62
2023/01/16 13:53:08;;;;;;;4.75;1.13;;;4.50;99.90;;;;;;4988243;28;20046;-63
2023/01/16 13:55:35;;;;;;;;;;;4.50;99.90;;;;;;4979046;28;20050;-63
2023/01/16 13:58:09;;;;;;;1.33;0.55;;;4.50;99.90;;;;;;4987584;28;20319;-62
2023/01/16 14:00:37;;;;;;;0.93;0.75;;;4.50;99.90;;;;;;4963658;28;20038;-63
2023/01/16 14:03:20;;;;;;;0.93;0.70;;;4.50;99.90;;;;;;4968021;28;20142;-63
2023/01/16 14:05:53;;;;;;;1.55;0.65;;;4.50;99.90;;;;;;4978141;28;20501;-62
2023/01/16 14:09:04;;;;;;;0.38;0.38;;;4.50;99.90;;;;;;4988068;28;20057;-62
2023/01/16 14:11:59;;;;;;;1.80;0.77;;;4.60;99.90;;;;;;4980535;28;20050;-63
2023/01/16 14:17:16;;;;;;;4.93;1.03;;;4.60;99.90;;;;;;4987517;28;20814;-63
2023/01/16 14:19:42;;;;;;;2.70;0.90;;;4.60;99.90;;;;;;4986371;28;20644;-63
2023/01/16 14:24:47;;;;;;;6.63;0.82;;;4.60;99.90;;;;;;4987735;28;20046;-63
2023/01/16 14:27:16;;;;;;;0.20;0.20;;;4.60;99.90;;;;;;4987776;28;20046;-63
2023/01/16 14:29:54;;;;;;;3.83;0.87;;;4.70;99.90;;;;;;4986725;28;20046;-63